Time;durP1;ratioP1;P1;durP2;ratioP2;P2;SDS_P1;SDS_P2;PMS_P1;PMS_P2;Temp;Humidity;BMP_temperature;BMP_pressure;BME280_temperature;BME280_humidity;BME280_pressure;Samples;Min_cycle;Max_cycle;Signal;HPM_P1;HPM_P2
2021/12/23 00:00:04;;;;;;;49.85;21.65;;;;;;;-1.84;71.83;100421.41;5042324;28;20052;-79
2021/12/23 00:02:35;;;;;;;53.50;21.45;;;;;;;-1.85;72.05;100417.09;5039438;28;20718;-79
2021/12/23 00:05:02;;;;;;;52.05;21.90;;;;;;;-1.87;71.91;100417.13;5052993;28;20392;-79
2021/12/23 00:07:29;;;;;;;45.35;21.88;;;;;;;-1.86;71.97;100415.38;5057473;28;20188;-80
2021/12/23 00:10:05;;;;;;;46.88;21.20;;;;;;;-1.89;72.12;100418.06;5040352;28;20123;-79
2021/12/23 00:12:51;;;;;;;54.92;22.20;;;;;;;-1.89;71.62;100424.13;5063807;28;20055;-79
2021/12/23 00:15:32;;;;;;;46.50;20.85;;;;;;;-1.90;72.05;100430.25;5068867;28;20044;-79
2021/12/23 00:18:05;;;;;;;53.53;23.15;;;;;;;-1.91;71.80;100412.91;5046420;28;20508;-79
2021/12/23 00:25:52;;;;;;;50.15;21.45;;;;;;;-1.96;71.72;100399.16;5033995;28;20047;-79
2021/12/23 00:28:20;;;;;;;53.63;20.95;;;;;;;-1.97;71.73;100389.66;5067780;28;20059;-79
2021/12/23 00:30:47;;;;;;;51.45;20.60;;;;;;;-1.99;71.98;100394.03;5068495;28;20582;-79
2021/12/23 00:33:14;;;;;;;52.08;23.63;;;;;;;-1.99;71.67;100384.47;5065961;28;20052;-79
2021/12/23 00:35:40;;;;;;;53.40;22.15;;;;;;;-2.01;71.78;100378.50;5087313;28;20044;-79
2021/12/23 00:38:16;;;;;;;52.50;20.48;;;;;;;-2.01;71.95;100373.28;5057297;28;20040;-79
2021/12/23 00:40:44;;;;;;;53.67;20.02;;;;;;;-2.02;71.87;100371.56;5045599;28;20052;-80
2021/12/23 00:43:11;;;;;;;57.53;22.48;;;;;;;-2.03;71.82;100364.66;5046804;28;20040;-79
2021/12/23 00:45:38;;;;;;;49.65;22.13;;;;;;;-2.04;71.88;100354.28;5070125;28;20044;-79
2021/12/23 00:48:05;;;;;;;53.63;20.98;;;;;;;-2.03;72.05;100367.28;5076131;28;20536;-80
2021/12/23 00:50:32;;;;;;;50.90;21.73;;;;;;;-2.05;71.82;100366.44;5079582;28;20043;-79
2021/12/23 00:53:00;;;;;;;49.83;20.83;;;;;;;-2.03;71.84;100367.28;5047137;28;20406;-79
2021/12/23 00:55:27;;;;;;;49.63;20.70;;;;;;;-2.04;71.75;100370.75;5058654;28;20559;-79
2021/12/23 00:57:54;;;;;;;53.65;21.42;;;;;;;-2.04;71.63;100357.75;5065444;28;20044;-79
2021/12/23 01:00:20;;;;;;;52.03;21.65;;;;;;;-2.08;71.82;100352.69;5063400;28;20495;-79
2021/12/23 01:02:48;;;;;;;55.00;21.83;;;;;;;-2.07;71.53;100347.41;5078291;28;20502;-80
2021/12/23 01:05:19;;;;;;;50.20;22.27;;;;;;;-2.08;71.85;100342.28;5081816;28;20055;-79
2021/12/23 01:07:46;;;;;;;53.53;22.45;;;;;;;-2.10;71.79;100338.88;5030232;28;20036;-79
2021/12/23 01:10:13;;;;;;;55.10;23.13;;;;;;;-2.08;71.62;100344.88;5062720;28;20110;-79
2021/12/23 01:12:53;;;;;;;55.40;23.42;;;;;;;-2.10;71.73;100333.66;5076588;28;20048;-80
2021/12/23 01:18:00;;;;;;;54.33;22.02;;;;;;;-2.14;71.26;100340.69;5064305;28;20040;-79
2021/12/23 01:20:30;;;;;;;49.40;20.92;;;;;;;-2.15;71.27;100336.38;5066081;28;20063;-79
2021/12/23 01:23:00;;;;;;;50.72;22.83;;;;;;;-2.16;71.56;100336.41;5037913;28;20066;-79
2021/12/23 01:25:27;;;;;;;50.75;21.17;;;;;;;-2.18;71.34;100336.47;5063575;28;20055;-79
2021/12/23 01:27:54;;;;;;;49.72;20.38;;;;;;;-2.19;71.21;100338.22;5079534;28;20043;-79
2021/12/23 01:30:21;;;;;;;53.58;21.30;;;;;;;-2.19;71.09;100335.63;5079954;28;20637;-80
2021/12/23 01:32:50;;;;;;;51.85;21.70;;;;;;;-2.21;70.99;100329.63;5060053;28;20044;-79
2021/12/23 01:35:17;;;;;;;54.78;22.45;;;;;;;-2.21;71.24;100339.16;5043891;28;20048;-79
2021/12/23 01:37:44;;;;;;;49.78;22.38;;;;;;;-2.20;71.56;100335.66;5060172;28;20101;-79
2021/12/23 01:40:15;;;;;;;54.05;20.48;;;;;;;-2.21;71.26;100339.16;5058163;28;20048;-80
2021/12/23 01:42:42;;;;;;;53.80;21.58;;;;;;;-2.21;71.44;100336.56;5045741;28;20475;-80
2021/12/23 01:45:14;;;;;;;48.85;20.05;;;;;;;-2.21;71.65;100328.78;5079284;28;20055;-79
2021/12/23 01:47:41;;;;;;;46.10;20.17;;;;;;;-2.22;71.63;100333.09;5054283;28;20044;-79
2021/12/23 01:50:10;;;;;;;55.42;20.52;;;;;;;-2.21;71.61;100339.16;5050098;28;20475;-79
2021/12/23 01:52:38;;;;;;;49.70;21.23;;;;;;;-2.21;71.55;100331.38;5063034;28;20044;-80
2021/12/23 01:55:09;;;;;;;52.08;21.77;;;;;;;-2.23;71.38;100334.00;5074167;28;20099;-80
2021/12/23 01:57:37;;;;;;;47.90;20.60;;;;;;;-2.23;71.45;100331.41;5067093;28;20044;-80
2021/12/23 02:00:07;;;;;;;53.25;21.30;;;;;;;-2.26;71.20;100330.66;5032466;28;20486;-80
2021/12/23 02:02:39;;;;;;;58.10;22.50;;;;;;;-2.26;71.08;100333.25;5057144;28;20579;-79
2021/12/23 02:05:07;;;;;;;61.30;23.05;;;;;;;-2.28;71.27;100330.69;5044162;28;20067;-80
2021/12/23 02:07:35;;;;;;;50.30;20.63;;;;;;;-2.30;71.36;100319.47;5032625;28;20356;-80
2021/12/23 02:10:03;;;;;;;53.92;22.60;;;;;;;-2.32;71.30;100312.59;5044914;28;20487;-79
2021/12/23 02:12:29;;;;;;;47.10;21.70;;;;;;;-2.32;71.64;100302.19;5060916;28;20413;-79
2021/12/23 02:14:56;;;;;;;56.78;21.67;;;;;;;-2.31;71.50;100315.16;5062161;28;20040;-80
2021/12/23 02:17:23;;;;;;;50.13;20.45;;;;;;;-2.32;71.50;100310.00;5037310;28;20044;-79
2021/12/23 02:19:54;;;;;;;51.08;21.63;;;;;;;-2.32;71.64;100302.19;5030696;28;20051;-79
2021/12/23 02:22:21;;;;;;;49.80;20.70;;;;;;;-2.31;71.66;100298.72;5057612;28;20054;-79
2021/12/23 02:24:48;;;;;;;50.85;22.13;;;;;;;-2.31;71.51;100296.09;5067683;28;20044;-80
2021/12/23 02:27:15;;;;;;;53.05;20.90;;;;;;;-2.31;71.82;100299.56;5077746;28;20110;-79
2021/12/23 02:29:42;;;;;;;53.97;22.08;;;;;;;-2.30;71.74;100288.25;5065491;28;20499;-79
2021/12/23 02:32:09;;;;;;;58.00;24.77;;;;;;;-2.31;71.74;100291.75;5074524;28;20044;-79
2021/12/23 02:34:35;;;;;;;56.78;23.25;;;;;;;-2.31;71.62;100280.50;5081162;28;20044;-79
2021/12/23 02:37:07;;;;;;;54.28;21.48;;;;;;;-2.33;71.59;100284.88;5062896;28;20111;-79
2021/12/23 02:39:35;;;;;;;56.30;22.27;;;;;;;-2.33;71.70;100275.31;5057563;28;20075;-79
2021/12/23 02:42:03;;;;;;;61.42;23.33;;;;;;;-2.34;71.90;100280.56;5076168;28;20044;-80
2021/12/23 02:44:30;;;;;;;53.78;21.27;;;;;;;-2.35;71.80;100276.28;5077095;28;20048;-79
2021/12/23 02:46:56;;;;;;;52.97;22.17;;;;;;;-2.36;71.90;100270.22;5063206;28;20041;-79
2021/12/23 02:49:23;;;;;;;52.15;21.65;;;;;;;-2.35;71.69;100265.88;5065310;28;20533;-79
2021/12/23 02:51:51;;;;;;;53.17;22.20;;;;;;;-2.35;71.75;100271.06;5059729;28;20040;-80
2021/12/23 02:54:18;;;;;;;51.63;22.20;;;;;;;-2.37;71.62;100268.50;5055285;28;20056;-79
2021/12/23 02:56:46;;;;;;;56.25;22.67;;;;;;;-2.37;71.61;100252.91;5072409;28;20045;-79
2021/12/23 02:59:13;;;;;;;51.28;20.98;;;;;;;-2.40;71.70;100251.22;5065994;28;20052;-80
2021/12/23 03:01:39;;;;;;;48.40;21.80;;;;;;;-2.41;71.75;100246.94;5056093;28;20044;-79
2021/12/23 03:04:06;;;;;;;55.63;22.42;;;;;;;-2.42;71.66;100239.16;5067797;28;20098;-79
2021/12/23 03:06:33;;;;;;;51.45;21.30;;;;;;;-2.42;72.03;100237.44;5057555;28;20768;-79
2021/12/23 03:09:03;;;;;;;53.15;21.35;;;;;;;-2.42;71.74;100241.78;5058098;28;20053;-79
2021/12/23 03:11:32;;;;;;;55.72;21.38;;;;;;;-2.42;71.76;100246.97;5036248;28;20060;-79
2021/12/23 03:13:59;;;;;;;51.60;21.42;;;;;;;-2.43;71.91;100246.13;5057663;28;20510;-79
2021/12/23 03:16:30;;;;;;;51.60;21.42;;;;;;;-2.46;72.01;100241.03;5049278;28;20041;-80
2021/12/23 03:18:57;;;;;;;61.05;21.27;;;;;;;-2.44;71.86;100244.44;5052461;28;20048;-79
2021/12/23 03:21:24;;;;;;;59.63;22.77;;;;;;;-2.44;71.80;100238.38;5079306;28;20036;-80
2021/12/23 03:23:51;;;;;;;53.22;22.27;;;;;;;-2.44;71.79;100241.84;5069795;28;20044;-79
2021/12/23 03:26:19;;;;;;;62.30;22.20;;;;;;;-2.39;71.57;100239.09;5062405;28;20047;-79
2021/12/23 03:28:45;;;;;;;54.60;21.73;;;;;;;-2.45;71.77;100234.06;5054970;28;20048;-80
2021/12/23 03:31:12;;;;;;;53.88;22.02;;;;;;;-2.47;71.50;100230.66;5063679;28;20044;-79
2021/12/23 03:33:39;;;;;;;54.80;21.10;;;;;;;-2.45;71.82;100229.72;5074426;28;20048;-79
2021/12/23 03:36:06;;;;;;;54.75;21.58;;;;;;;-2.48;71.40;100241.97;5070213;28;20075;-80
2021/12/23 03:38:33;;;;;;;53.20;21.70;;;;;;;-2.49;71.57;100233.31;5069398;28;20521;-79
2021/12/23 03:41:00;;;;;;;49.97;20.40;;;;;;;-2.49;71.41;100225.50;5075210;28;20036;-79
2021/12/23 03:43:28;;;;;;;57.85;21.65;;;;;;;-2.51;71.41;100221.25;5060479;28;20041;-80
2021/12/23 03:45:55;;;;;;;54.08;20.83;;;;;;;-2.52;71.55;100219.53;5078277;28;20049;-79
2021/12/23 03:48:22;;;;;;;56.08;21.88;;;;;;;-2.54;71.50;100214.38;5060988;28;20075;-79
2021/12/23 03:50:49;;;;;;;56.60;21.13;;;;;;;-2.53;71.55;100210.88;5043692;28;20097;-79
2021/12/23 03:53:17;;;;;;;53.03;20.15;;;;;;;-2.54;71.65;100204.00;5047176;28;20075;-79
2021/12/23 03:55:43;;;;;;;56.13;22.73;;;;;;;-2.53;71.86;100205.69;5063518;28;20045;-79
2021/12/23 03:58:10;;;;;;;51.85;22.60;;;;;;;-2.54;71.87;100196.19;5048295;28;20086;-79
2021/12/23 04:00:38;;;;;;;57.30;21.95;;;;;;;-2.55;71.70;100191.88;5033116;28;20041;-79
2021/12/23 04:03:05;;;;;;;52.00;21.60;;;;;;;-2.55;71.75;100189.28;5048497;28;20518;-79
2021/12/23 04:05:32;;;;;;;47.47;19.58;;;;;;;-2.56;71.93;100192.78;5072919;28;20446;-80
2021/12/23 04:07:59;;;;;;;54.45;22.30;;;;;;;-2.56;71.71;100178.94;5059851;28;20377;-80
2021/12/23 04:10:26;;;;;;;53.05;22.38;;;;;;;-2.56;71.77;100184.13;5068581;28;20052;-80
2021/12/23 04:12:53;;;;;;;45.75;20.45;;;;;;;-2.56;71.61;100192.78;5046527;28;20458;-79
2021/12/23 04:15:20;;;;;;;53.05;20.58;;;;;;;-2.57;71.73;100185.00;5081304;28;20438;-79
2021/12/23 04:17:47;;;;;;;55.75;22.13;;;;;;;-2.56;71.80;100178.94;5048303;28;20032;-79
2021/12/23 04:20:18;;;;;;;54.83;21.42;;;;;;;-2.55;72.14;100176.25;5080551;28;20057;-79
2021/12/23 04:22:48;;;;;;;58.28;22.15;;;;;;;-2.55;72.17;100170.22;5061287;28;20421;-80
2021/12/23 04:25:15;;;;;;;57.95;22.75;;;;;;;-2.55;71.87;100167.63;5078285;28;20044;-79
2021/12/23 04:27:44;;;;;;;49.35;21.67;;;;;;;-2.56;71.90;100161.56;5060430;28;20109;-80
2021/12/23 04:30:11;;;;;;;54.17;21.83;;;;;;;-2.56;72.08;100161.56;5081686;28;20111;-79
2021/12/23 04:32:37;;;;;;;56.50;22.17;;;;;;;-2.56;72.09;100158.97;5066679;28;20093;-79
2021/12/23 04:35:05;;;;;;;56.75;21.40;;;;;;;-2.57;71.86;100159.88;5068859;28;20069;-80
2021/12/23 04:37:32;;;;;;;55.08;22.35;;;;;;;-2.57;72.11;100159.00;5078541;28;20036;-79
2021/12/23 04:39:58;;;;;;;59.85;23.67;;;;;;;-2.58;72.17;100142.56;5062808;28;20043;-79
2021/12/23 04:42:25;;;;;;;57.00;23.02;;;;;;;-2.57;72.35;100135.63;5061922;28;20047;-79
2021/12/23 04:44:52;;;;;;;61.85;24.95;;;;;;;-2.57;72.12;100139.09;5072990;28;20048;-79
2021/12/23 04:47:19;;;;;;;62.70;23.55;;;;;;;-2.57;72.21;100141.69;5069688;28;20036;-79
2021/12/23 04:49:46;;;;;;;53.35;21.77;;;;;;;-2.52;71.75;100145.00;5054883;28;20704;-79
2021/12/23 04:52:12;;;;;;;59.00;22.30;;;;;;;-2.58;71.84;100141.72;5040948;28;20036;-79
2021/12/23 04:54:39;;;;;;;47.63;21.05;;;;;;;-2.62;71.80;100139.22;5057444;28;20041;-79
2021/12/23 04:57:06;;;;;;;51.80;21.02;;;;;;;-2.63;71.83;100137.50;5039126;28;20056;-79
2021/12/23 04:59:33;;;;;;;52.92;21.83;;;;;;;-2.62;71.94;100133.19;5074321;28;20596;-79
2021/12/23 05:01:59;;;;;;;56.70;22.05;;;;;;;-2.64;72.16;100138.41;5065451;28;20040;-79
2021/12/23 05:04:26;;;;;;;56.67;20.40;;;;;;;-2.64;72.16;100140.16;5077255;28;20693;-80
2021/12/23 05:06:53;;;;;;;65.45;23.00;;;;;;;-2.64;72.28;100137.56;5075781;28;20048;-79
2021/12/23 05:09:20;;;;;;;57.65;21.40;;;;;;;-2.64;72.21;100142.75;5061154;28;20070;-79
2021/12/23 05:11:46;;;;;;;45.20;17.35;;;;;;;-2.65;72.30;100134.09;5030923;28;20091;-79
2021/12/23 05:14:19;;;;;;;55.55;20.65;;;;;;;-2.65;72.13;100143.63;5039170;28;20055;-79
2021/12/23 05:16:45;;;;;;;53.03;21.77;;;;;;;-2.66;72.28;100140.19;5061672;28;20044;-79
2021/12/23 05:19:12;;;;;;;54.67;21.58;;;;;;;-2.66;72.58;100139.34;5073699;28;20448;-79
2021/12/23 05:21:39;;;;;;;53.90;21.73;;;;;;;-2.67;72.49;100141.09;5057914;28;20090;-80
2021/12/23 05:24:06;;;;;;;56.75;22.92;;;;;;;-2.67;72.34;100148.91;5065771;28;20041;-79
2021/12/23 05:26:32;;;;;;;60.53;23.13;;;;;;;-2.66;72.66;100132.41;5060296;28;20041;-80
2021/12/23 05:28:59;;;;;;;56.97;22.67;;;;;;;-2.67;72.26;100122.91;5057875;28;20450;-81
2021/12/23 05:31:26;;;;;;;49.83;20.30;;;;;;;-2.66;72.59;100114.19;5058365;28;20041;-79
2021/12/23 05:33:53;;;;;;;55.97;21.27;;;;;;;-2.66;72.55;100102.97;5066031;28;20064;-79
2021/12/23 05:36:20;;;;;;;63.40;23.48;;;;;;;-2.65;72.47;100102.03;5054641;28;21528;-82
2021/12/23 05:38:47;;;;;;;59.55;21.83;;;;;;;-2.66;72.58;100101.19;5058199;28;20086;-79
2021/12/23 05:41:14;;;;;;;51.15;20.23;;;;;;;-2.67;72.74;100098.63;5061611;28;20048;-79
2021/12/23 05:43:41;;;;;;;55.08;21.42;;;;;;;-2.66;72.77;100089.97;5055663;28;20056;-81
2021/12/23 05:46:09;;;;;;;54.58;19.13;;;;;;;-2.65;72.56;100086.44;5044698;28;20056;-80
2021/12/23 05:48:35;;;;;;;62.65;24.33;;;;;;;-2.65;72.80;100083.84;5063466;28;20098;-81
2021/12/23 05:51:02;;;;;;;58.88;23.73;;;;;;;-2.65;72.78;100078.66;5039085;28;20048;-81
2021/12/23 05:53:29;;;;;;;62.67;25.05;;;;;;;-2.66;72.81;100074.38;5056232;28;20037;-79
2021/12/23 05:55:56;;;;;;;66.45;23.23;;;;;;;-2.66;72.84;100079.56;5073208;28;20314;-79
2021/12/23 05:58:23;;;;;;;55.45;22.70;;;;;;;-2.66;72.67;100080.41;5074040;28;20060;-80
2021/12/23 06:00:53;;;;;;;54.17;23.10;;;;;;;-2.68;72.81;100076.16;5056709;28;20033;-78
2021/12/23 06:03:19;;;;;;;57.22;22.25;;;;;;;-2.68;72.70;100086.56;5058866;28;20045;-78
2021/12/23 06:05:46;;;;;;;55.03;22.77;;;;;;;-2.67;73.02;100085.63;5052933;28;20044;-80
2021/12/23 06:08:13;;;;;;;59.15;22.33;;;;;;;-2.68;73.06;100091.75;5055078;28;20056;-79
2021/12/23 06:10:40;;;;;;;58.47;22.73;;;;;;;-2.70;72.79;100089.19;5046582;28;20511;-79
2021/12/23 06:13:06;;;;;;;54.95;21.75;;;;;;;-2.69;72.83;100084.84;5039592;28;20040;-80
2021/12/23 06:15:36;;;;;;;56.05;22.55;;;;;;;-2.70;73.21;100089.19;5074922;28;20040;-79
2021/12/23 06:18:03;;;;;;;59.45;22.10;;;;;;;-2.71;73.26;100084.91;5060430;28;20118;-78
2021/12/23 06:20:31;;;;;;;60.90;22.60;;;;;;;-2.70;72.95;100090.94;5052780;28;20736;-80
2021/12/23 06:22:57;;;;;;;55.28;21.73;;;;;;;-2.70;73.02;100088.34;5077663;28;20052;-79
2021/12/23 06:25:24;;;;;;;61.42;23.27;;;;;;;-2.70;73.68;100085.75;5074889;28;20041;-78
2021/12/23 06:27:51;;;;;;;59.00;22.63;;;;;;;-2.73;73.05;100076.28;5045010;28;20048;-79
2021/12/23 06:30:18;;;;;;;66.00;23.08;;;;;;;-2.71;73.36;100089.25;5046363;28;20048;-79
2021/12/23 06:32:51;;;;;;;58.70;21.48;;;;;;;-2.72;73.08;100084.94;5076869;28;20048;-78
2021/12/23 06:35:19;;;;;;;64.75;24.92;;;;;;;-2.72;73.24;100087.53;5052073;28;20049;-78
2021/12/23 06:37:46;;;;;;;65.65;24.05;;;;;;;-2.73;73.18;100081.47;5044242;28;20088;-80
2021/12/23 06:40:13;;;;;;;58.92;23.58;;;;;;;-2.73;73.53;100081.47;5069164;28;20395;-77
2021/12/23 06:42:40;;;;;;;66.00;24.55;;;;;;;-2.73;73.50;100081.47;5062142;28;20391;-78
2021/12/23 06:45:08;;;;;;;62.45;23.88;;;;;;;-2.74;73.47;100076.34;5062930;28;20051;-77
2021/12/23 06:47:35;;;;;;;60.78;24.30;;;;;;;-2.75;73.23;100059.88;5060516;28;20040;-77
2021/12/23 06:50:05;;;;;;;64.50;23.60;;;;;;;-2.75;73.42;100059.88;5038617;28;20136;-78
2021/12/23 06:52:32;;;;;;;54.33;22.35;;;;;;;-2.75;73.30;100048.63;5055763;28;20583;-77
2021/12/23 06:54:59;;;;;;;65.80;24.20;;;;;;;-2.75;73.44;100051.25;5064562;28;20409;-77
2021/12/23 06:57:27;;;;;;;58.25;22.10;;;;;;;-2.75;73.56;100046.03;5075974;28;20044;-78
2021/12/23 06:59:53;;;;;;;61.90;23.20;;;;;;;-2.76;73.50;100055.59;5060941;28;20052;-78
2021/12/23 07:02:21;;;;;;;63.15;23.95;;;;;;;-2.75;73.38;100046.03;5043848;28;20127;-78
2021/12/23 07:04:48;;;;;;;56.80;24.45;;;;;;;-2.75;73.67;100046.88;5059707;28;20045;-78
2021/12/23 07:07:29;;;;;;;60.42;25.10;;;;;;;-2.74;73.75;100055.56;5073878;28;20488;-76
2021/12/23 07:09:56;;;;;;;55.85;22.05;;;;;;;-2.75;73.45;100046.88;5059179;28;20048;-78
2021/12/23 07:12:23;;;;;;;56.95;21.73;;;;;;;-2.75;73.81;100054.69;5079663;28;20061;-78
2021/12/23 07:14:50;;;;;;;56.38;19.65;;;;;;;-2.75;73.74;100043.44;5079056;28;20044;-78
2021/12/23 07:17:20;;;;;;;58.72;22.67;;;;;;;-2.75;73.75;100035.66;5046887;28;20416;-77
2021/12/23 07:19:47;;;;;;;65.35;24.73;;;;;;;-2.76;73.72;100037.41;5064049;28;20039;-80
2021/12/23 07:22:13;;;;;;;64.65;26.77;;;;;;;-2.78;73.57;100036.59;5060152;28;20407;-79
2021/12/23 07:24:41;;;;;;;64.10;24.92;;;;;;;-2.78;73.56;100035.75;5043550;28;20403;-77
2021/12/23 07:27:09;;;;;;;57.47;24.00;;;;;;;-2.78;73.49;100038.34;5075442;28;20052;-78
2021/12/23 07:29:36;;;;;;;63.50;25.25;;;;;;;-2.79;73.42;100034.91;5058329;28;20049;-78
2021/12/23 07:32:05;;;;;;;66.07;24.52;;;;;;;-2.79;73.66;100036.66;5060940;28;20098;-78
2021/12/23 07:34:32;;;;;;;63.47;23.98;;;;;;;-2.80;73.55;100040.13;5059326;28;20043;-78
2021/12/23 07:36:59;;;;;;;65.82;24.40;;;;;;;-2.80;73.88;100034.94;5087752;28;20047;-78
2021/12/23 07:39:26;;;;;;;68.95;26.02;;;;;;;-2.80;73.48;100048.78;5060364;28;20143;-78
2021/12/23 07:42:15;;;;;;;79.53;28.38;;;;;;;-2.80;73.53;100059.16;5061106;28;20106;-78
2021/12/23 07:44:43;;;;;;;71.68;25.77;;;;;;;-2.79;73.68;100044.44;5066645;28;20048;-78
2021/12/23 07:47:11;;;;;;;67.05;26.45;;;;;;;-2.81;73.58;100044.47;5063094;28;20052;-80
2021/12/23 07:49:39;;;;;;;69.03;28.40;;;;;;;-2.80;73.90;100045.34;5052808;28;20051;-80
2021/12/23 07:52:08;;;;;;;64.70;26.45;;;;;;;-2.81;73.77;100044.47;5064162;28;20048;-79
2021/12/23 07:54:36;;;;;;;67.43;25.77;;;;;;;-2.78;73.79;100044.38;5079013;28;20523;-79
2021/12/23 07:57:04;;;;;;;68.80;26.38;;;;;;;-2.79;73.84;100045.28;5063622;28;20048;-79
2021/12/23 07:59:31;;;;;;;63.78;24.80;;;;;;;-2.78;73.92;100046.13;5059622;28;20048;-80
2021/12/23 08:01:57;;;;;;;70.13;26.15;;;;;;;-2.77;74.03;100047.81;5077063;28;20048;-80
2021/12/23 08:04:25;;;;;;;65.22;25.13;;;;;;;-2.76;73.84;100050.41;5075070;28;20625;-80
2021/12/23 08:06:55;;;;;;;63.65;25.63;;;;;;;-2.78;73.89;100052.19;5057601;28;20353;-79
2021/12/23 08:09:23;;;;;;;59.65;24.92;;;;;;;-2.78;73.93;100041.78;5055988;28;20048;-79
2021/12/23 08:11:49;;;;;;;58.67;23.20;;;;;;;-2.78;73.73;100033.16;5074507;28;20064;-78
2021/12/23 08:14:16;;;;;;;59.75;21.65;;;;;;;-2.76;74.00;100007.97;5060204;28;20423;-77
2021/12/23 08:16:43;;;;;;;66.88;24.85;;;;;;;-2.77;74.07;100017.53;5075725;28;20051;-79
2021/12/23 08:19:11;;;;;;;69.57;25.67;;;;;;;-2.75;73.90;100028.69;5078603;28;20044;-80
2021/12/23 08:21:38;;;;;;;63.38;25.35;;;;;;;-2.73;74.08;100028.66;5047168;28;20055;-79
2021/12/23 08:24:05;;;;;;;69.43;27.15;;;;;;;-2.74;74.05;100032.16;5076953;28;20048;-78
2021/12/23 08:26:39;;;;;;;64.28;25.63;;;;;;;-2.73;73.80;100036.44;5043181;28;20052;-80
2021/12/23 08:29:07;;;;;;;71.00;26.80;;;;;;;-2.72;73.89;100041.63;5055755;28;20492;-79
2021/12/23 08:31:35;;;;;;;74.13;26.88;;;;;;;-2.73;74.04;100031.25;5059206;28;20037;-78
2021/12/23 08:34:03;;;;;;;62.42;28.25;;;;;;;-2.74;74.08;100027.81;5067447;28;20144;-78
2021/12/23 08:36:30;;;;;;;66.88;27.45;;;;;;;-2.73;73.87;100006.09;5067077;28;20404;-78
2021/12/23 08:38:58;;;;;;;57.70;23.67;;;;;;;-2.73;74.07;100005.25;5066964;28;20047;-78
2021/12/23 08:41:26;;;;;;;70.32;27.65;;;;;;;-2.72;74.14;99988.75;5084243;28;20487;-77
2021/12/23 08:43:52;;;;;;;68.43;24.98;;;;;;;-2.70;74.29;99985.22;5083783;28;20052;-77
2021/12/23 08:46:20;;;;;;;73.10;27.75;;;;;;;-2.68;74.24;99992.97;5086484;28;20495;-77
2021/12/23 08:48:47;;;;;;;66.30;27.13;;;;;;;-2.67;74.43;99997.25;5069497;28;20048;-77
2021/12/23 08:51:14;;;;;;;62.47;27.02;;;;;;;-2.66;74.47;99993.78;5083889;28;20506;-77
2021/12/23 08:53:41;;;;;;;66.35;26.80;;;;;;;-2.65;74.51;100000.66;5058280;28;20048;-77
2021/12/23 08:56:08;;;;;;;68.22;27.33;;;;;;;-2.65;74.49;100003.28;5081103;28;20045;-78
2021/12/23 08:58:39;;;;;;;70.82;27.70;;;;;;;-2.66;74.40;99998.97;5078776;28;20058;-77
2021/12/23 09:01:06;;;;;;;71.72;27.30;;;;;;;-2.64;74.36;100000.63;5006980;28;20047;-78
2021/12/23 09:03:34;;;;;;;73.18;29.17;;;;;;;-2.64;74.37;100002.38;5076948;28;20060;-78
2021/12/23 09:06:02;;;;;;;64.07;26.75;;;;;;;-2.64;74.50;99995.44;5043173;28;20117;-78
2021/12/23 09:08:29;;;;;;;66.03;27.17;;;;;;;-2.62;74.62;99995.41;5035578;28;20048;-77
2021/12/23 09:10:57;;;;;;;70.68;28.13;;;;;;;-2.61;74.39;99997.09;5056564;28;20045;-78
2021/12/23 09:13:29;;;;;;;73.30;29.50;;;;;;;-2.61;74.83;100004.88;5030568;28;20147;-77
2021/12/23 09:16:27;;;;;;;69.05;27.63;;;;;;;-2.67;75.53;100000.75;5071541;28;20057;-84
2021/12/23 09:18:54;;;;;;;76.10;29.73;;;;;;;-2.58;74.78;99996.13;5037303;28;20093;-88
2021/12/23 09:21:21;;;;;;;77.30;29.58;;;;;;;-2.56;75.38;99994.34;5061175;28;20059;-87
2021/12/23 09:24:00;;;;;;;78.07;30.10;;;;;;;-2.53;75.70;100000.28;5014566;28;20149;-86
2021/12/23 09:26:36;;;;;;;77.05;30.73;;;;;;;-2.54;75.21;100003.78;5044553;28;20083;-88
2021/12/23 09:29:16;;;;;;;72.88;29.48;;;;;;;-2.53;75.07;100000.28;5031580;28;20049;-88
2021/12/23 09:34:30;;;;;;;78.00;31.65;;;;;;;-2.52;76.33;99982.94;5004301;28;20046;-89
2021/12/23 09:36:57;;;;;;;75.13;29.88;;;;;;;-2.49;75.63;99980.25;5015821;28;20053;-87
2021/12/23 09:39:24;;;;;;;70.00;29.40;;;;;;;-2.49;75.63;99978.50;5015120;28;20413;-87
2021/12/23 09:41:51;;;;;;;79.60;29.50;;;;;;;-2.48;75.68;99980.19;5014392;28;20453;-87
2021/12/23 09:44:17;;;;;;;77.63;30.05;;;;;;;-2.49;75.43;99982.84;5007178;28;20054;-87
2021/12/23 09:46:44;;;;;;;77.28;31.23;;;;;;;-2.49;75.21;99975.91;5016448;28;20049;-87
2021/12/23 09:49:11;;;;;;;74.15;29.52;;;;;;;-2.48;75.27;99984.53;5015157;28;20489;-88
2021/12/23 09:51:38;;;;;;;79.60;30.25;;;;;;;-2.48;75.26;99977.59;5016652;28;20485;-87
2021/12/23 09:54:08;;;;;;;85.22;33.47;;;;;;;-2.46;75.36;99977.53;5015935;28;20045;-87
2021/12/23 09:56:35;;;;;;;72.43;30.25;;;;;;;-2.46;75.26;99978.41;5013088;28;20045;-86
2021/12/23 09:59:05;;;;;;;78.65;32.10;;;;;;;-2.46;75.56;99969.75;5012006;28;20050;-87
2021/12/23 10:01:34;;;;;;;78.75;31.35;;;;;;;-2.46;75.55;99960.19;5018648;28;20065;-87
2021/12/23 10:04:01;;;;;;;78.05;30.48;;;;;;;-2.45;75.81;99966.22;5013474;28;20069;-88
2021/12/23 10:06:28;;;;;;;82.43;32.22;;;;;;;-2.45;75.66;99966.22;5065920;28;20047;-88
2021/12/23 10:08:55;;;;;;;73.68;31.20;;;;;;;-2.44;75.56;99957.56;5060708;28;20036;-84
2021/12/23 10:31:19;;;;;;;73.47;30.20;;;;;;;-2.42;75.86;99915.00;5063332;28;20064;-88
2021/12/23 10:37:04;;;;;;;78.90;32.72;;;;;;;-2.40;76.18;99914.94;5055814;28;20127;-86
2021/12/23 10:39:23;;;;;;;75.72;30.05;;;;;;;-2.37;76.35;99912.22;5011122;28;20506;-87
2021/12/23 10:41:49;;;;;;;74.13;29.55;;;;;;;-2.35;76.20;99917.38;5072287;28;21618;-86
2021/12/23 10:44:28;;;;;;;74.28;30.27;;;;;;;-2.39;76.52;99906.25;5068482;28;20044;-87
2021/12/23 10:46:55;;;;;;;69.05;28.88;;;;;;;-2.35;76.19;99901.78;5024626;28;20040;-87
2021/12/23 10:49:41;;;;;;;69.57;28.48;;;;;;;-2.35;76.29;99897.41;5081226;28;20044;-87
2021/12/23 10:52:26;;;;;;;72.95;29.08;;;;;;;-2.33;76.76;99889.56;5027605;28;20048;-87
2021/12/23 11:00:31;;;;;;;62.10;25.52;;;;;;;-2.37;77.14;99885.38;5046930;28;20047;-88
2021/12/23 11:03:09;;;;;;;70.97;26.42;;;;;;;-2.33;76.98;99884.38;5024923;28;20070;-88
2021/12/23 11:05:44;;;;;;;63.10;27.17;;;;;;;-2.29;76.72;99880.75;5057209;28;20703;-88
2021/12/23 11:11:19;;;;;;;64.50;25.90;;;;;;;-2.31;76.90;99864.38;5047483;28;20052;-85
2021/12/23 11:38:59;;;;;;;63.15;26.05;;;;;;;-2.19;77.14;99817.09;5017521;28;20506;-87
2021/12/23 11:44:00;;;;;;;68.72;26.27;;;;;;;-2.17;77.21;99817.03;5080100;28;20042;-87
2021/12/23 11:46:43;;;;;;;60.90;24.77;;;;;;;-2.23;78.20;99805.97;5064661;28;20127;-87
2021/12/23 11:49:13;;;;;;;63.22;24.33;;;;;;;-2.14;77.11;99796.94;5046792;28;20049;-87
2021/12/23 11:51:53;;;;;;;62.03;24.98;;;;;;;-2.09;76.89;99799.38;5072739;28;20537;-87
2021/12/23 11:54:33;;;;;;;68.07;23.75;;;;;;;-2.12;77.10;99795.16;5060810;28;20055;-88
2021/12/23 11:57:05;;;;;;;64.70;24.40;;;;;;;-2.10;77.00;99788.13;5045459;28;20283;-83
2021/12/23 11:59:35;;;;;;;57.42;23.55;;;;;;;-2.07;77.12;99780.22;5074494;28;20513;-87
2021/12/23 12:02:18;;;;;;;61.83;24.20;;;;;;;-2.09;77.33;99782.03;5028540;28;20042;-87
2021/12/23 12:04:47;;;;;;;58.65;24.95;;;;;;;-2.13;77.78;99783.06;5015887;28;20043;-87
2021/12/23 12:07:18;;;;;;;53.90;21.85;;;;;;;-2.06;77.08;99773.25;5039552;28;20485;-87
2021/12/23 12:10:04;;;;;;;60.55;24.13;;;;;;;-2.08;77.42;99768.13;5080937;28;20048;-87
2021/12/23 12:12:33;;;;;;;63.83;23.83;;;;;;;-2.01;77.35;99771.31;5028649;28;20049;-88
2021/12/23 12:15:00;;;;;;;52.90;22.33;;;;;;;-1.99;77.02;99780.75;5062782;28;20076;-88
2021/12/23 12:17:30;;;;;;;65.80;25.50;;;;;;;-2.00;77.35;99767.84;5060223;28;20052;-88
2021/12/23 12:19:58;;;;;;;64.15;24.40;;;;;;;-2.00;77.44;99766.06;5061271;28;20510;-88
2021/12/23 12:22:46;;;;;;;57.75;23.35;;;;;;;-2.04;77.15;99761.88;5071783;28;20044;-87
2021/12/23 12:25:25;;;;;;;57.50;23.42;;;;;;;-2.02;77.43;99757.47;5035190;28;20426;-87
2021/12/23 12:27:57;;;;;;;58.15;23.48;;;;;;;-1.99;77.35;99765.16;5046901;28;20044;-87